This is the latest recevied weather packets stored in our database for station/object EA3KZ-1. If no packets are shown the sender has not sent any weather packets the latest 1 day(s).
| Time | Temp. | Humidity | Pressure | Rain* | Wind** | Luminosity | Snow |
|---|---|---|---|---|---|---|---|
| 1778024128 | 11.11° C | 87% | 1006.4 hPa | 0 mm | 0.45 m/s, 302° | - | - |
| 1778023520 | 11.11° C | 88% | 1006.5 hPa | 0 mm | 0 m/s | - | - |
| 1778022918 | 11.11° C | 88% | 1006.3 hPa | 0 mm | 0.45 m/s, 230° | - | - |
| 1778022315 | 11.67° C | 86% | 1006.3 hPa | 0 mm | 0 m/s | - | - |
| 1778021767 | 11.67° C | 85% | 1006.1 hPa | 0 mm | 0.45 m/s, 297° | - | - |
| 1778021164 | 11.67° C | 84% | 1006.5 hPa | 0 mm | 0.45 m/s, 230° | - | - |
| 1778020557 | 12.22° C | 81% | 1006.7 hPa | 0 mm | 0.45 m/s, 208° | - | - |
| 1778019954 | 12.78° C | 80% | 1006.8 hPa | 0 mm | 0.45 m/s, 231° | - | - |
| 1778019351 | 12.22° C | 82% | 1006.8 hPa | 0 mm | 0.89 m/s, 267° | - | - |
| 1778018743 | 12.22° C | 81% | 1007.2 hPa | 0 mm | 0.89 m/s, 236° | - | - |
| 1778018140 | 12.22° C | 80% | 1007.1 hPa | 0 mm | 1.34 m/s, 229° | - | - |
| 1778017533 | 12.22° C | 80% | 1007.1 hPa | 0 mm | 0.45 m/s, 225° | - | - |
| 1778016930 | 12.22° C | 82% | 1007.2 hPa | 0 mm | 0.45 m/s, 228° | - | - |
| 1778016327 | 11.67° C | 84% | 1007.2 hPa | 0 mm | 1.34 m/s, 234° | - | - |
| 1778015719 | 11.67° C | 85% | 1007.2 hPa | 0 mm | 1.34 m/s, 233° | - | - |
| 1778015116 | 11.67° C | 83% | 1006.9 hPa | 0 mm | 0.89 m/s, 189° | - | - |
| 1778014568 | 12.22° C | 83% | 1006.9 hPa | 0 mm | 1.79 m/s, 233° | - | - |
| 1778013965 | 12.22° C | 82% | 1006.7 hPa | 0 mm | 1.34 m/s, 229° | - | - |
| 1778013363 | 12.22° C | 83% | 1006.8 hPa | 0 mm | 0.89 m/s, 248° | - | - |
| 1778013036 | 12.22° C | 83% | 1006.7 hPa | 0 mm | 0.89 m/s, 236° | - | - |
| 1778012434 | 11.67° C | 85% | 1006.6 hPa | 0 mm | 0.89 m/s, 234° | - | - |
| 1778011831 | 11.67° C | 85% | 1006.5 hPa | 0 mm | 0.45 m/s, 190° | - | - |
| 1778011229 | 12.22° C | 84% | 1006.2 hPa | 0 mm | 0.45 m/s, 244° | - | - |
| 1778010626 | 12.22° C | 83% | 1005.9 hPa | 0 mm | 0.45 m/s, 224° | - | - |
| 1778009421 | 12.78° C | 79% | 1005.6 hPa | 0 mm | 0.45 m/s, 243° | - | - |
* Rain latest hour (hover to see other rain measurements)
** Current wind speed in m/s (hover to see current wind gust speed)